sensor_id;sensor_type;location;lat;lon;timestamp;P1;durP1;ratioP1;P2;durP2;ratioP2
42118;SDS011;27783;42.782;23.274;2022-10-16T00:00:32;13.15;;;9.93;;
42118;SDS011;27783;42.782;23.274;2022-10-16T00:03:00;10.88;;;9.45;;
42118;SDS011;27783;42.782;23.274;2022-10-16T00:05:26;11.07;;;9.93;;
42118;SDS011;27783;42.782;23.274;2022-10-16T00:07:51;12.82;;;9.93;;
42118;SDS011;27783;42.782;23.274;2022-10-16T00:10:17;14.85;;;11.05;;
42118;SDS011;27783;42.782;23.274;2022-10-16T00:12:43;15.43;;;11.10;;
42118;SDS011;27783;42.782;23.274;2022-10-16T00:15:10;11.40;;;9.52;;
42118;SDS011;27783;42.782;23.274;2022-10-16T00:17:35;13.20;;;10.00;;
42118;SDS011;27783;42.782;23.274;2022-10-16T00:20:01;12.38;;;10.90;;
42118;SDS011;27783;42.782;23.274;2022-10-16T00:22:26;18.17;;;9.70;;
42118;SDS011;27783;42.782;23.274;2022-10-16T00:24:52;12.77;;;8.50;;
42118;SDS011;27783;42.782;23.274;2022-10-16T00:27:19;13.18;;;7.68;;
42118;SDS011;27783;42.782;23.274;2022-10-16T00:29:44;10.10;;;7.40;;
42118;SDS011;27783;42.782;23.274;2022-10-16T00:32:09;8.30;;;7.22;;
42118;SDS011;27783;42.782;23.274;2022-10-16T00:34:35;11.30;;;8.55;;
42118;SDS011;27783;42.782;23.274;2022-10-16T00:37:01;12.15;;;8.02;;
42118;SDS011;27783;42.782;23.274;2022-10-16T00:39:27;9.63;;;8.65;;
42118;SDS011;27783;42.782;23.274;2022-10-16T00:41:53;12.43;;;8.60;;
42118;SDS011;27783;42.782;23.274;2022-10-16T00:47:10;13.40;;;8.32;;
42118;SDS011;27783;42.782;23.274;2022-10-16T00:50:02;13.05;;;7.85;;
42118;SDS011;27783;42.782;23.274;2022-10-16T00:52:30;11.30;;;9.15;;
42118;SDS011;27783;42.782;23.274;2022-10-16T00:54:56;20.52;;;9.82;;
42118;SDS011;27783;42.782;23.274;2022-10-16T00:57:22;13.80;;;10.67;;
42118;SDS011;27783;42.782;23.274;2022-10-16T00:59:49;10.40;;;9.32;;
42118;SDS011;27783;42.782;23.274;2022-10-16T01:02:15;12.50;;;10.15;;
42118;SDS011;27783;42.782;23.274;2022-10-16T01:04:43;10.18;;;8.50;;
42118;SDS011;27783;42.782;23.274;2022-10-16T01:13:24;10.13;;;8.80;;
42118;SDS011;27783;42.782;23.274;2022-10-16T01:18:32;11.82;;;8.38;;
42118;SDS011;27783;42.782;23.274;2022-10-16T01:21:03;10.80;;;8.98;;
42118;SDS011;27783;42.782;23.274;2022-10-16T01:26:31;12.75;;;10.38;;
42118;SDS011;27783;42.782;23.274;2022-10-16T01:29:27;10.55;;;9.55;;
42118;SDS011;27783;42.782;23.274;2022-10-16T01:31:59;9.07;;;8.18;;
42118;SDS011;27783;42.782;23.274;2022-10-16T01:34:47;16.05;;;9.77;;
42118;SDS011;27783;42.782;23.274;2022-10-16T01:37:19;10.38;;;8.15;;
42118;SDS011;27783;42.782;23.274;2022-10-16T01:40:13;9.70;;;8.18;;
42118;SDS011;27783;42.782;23.274;2022-10-16T01:42:42;10.00;;;7.80;;
42118;SDS011;27783;42.782;23.274;2022-10-16T01:45:15;9.23;;;7.47;;
42118;SDS011;27783;42.782;23.274;2022-10-16T01:47:44;14.00;;;8.30;;
42118;SDS011;27783;42.782;23.274;2022-10-16T01:50:12;9.68;;;8.13;;
42118;SDS011;27783;42.782;23.274;2022-10-16T01:52:41;10.68;;;8.32;;
42118;SDS011;27783;42.782;23.274;2022-10-16T01:55:11;8.40;;;7.07;;
42118;SDS011;27783;42.782;23.274;2022-10-16T01:57:41;9.32;;;8.10;;
42118;SDS011;27783;42.782;23.274;2022-10-16T02:00:12;9.98;;;9.07;;
42118;SDS011;27783;42.782;23.274;2022-10-16T02:02:40;10.82;;;7.95;;
42118;SDS011;27783;42.782;23.274;2022-10-16T02:05:12;10.10;;;7.00;;
42118;SDS011;27783;42.782;23.274;2022-10-16T02:07:42;9.00;;;8.07;;
42118;SDS011;27783;42.782;23.274;2022-10-16T02:10:08;12.52;;;8.43;;
42118;SDS011;27783;42.782;23.274;2022-10-16T02:12:35;9.95;;;8.07;;
42118;SDS011;27783;42.782;23.274;2022-10-16T02:15:04;9.40;;;8.20;;
42118;SDS011;27783;42.782;23.274;2022-10-16T02:17:32;8.23;;;7.43;;
42118;SDS011;27783;42.782;23.274;2022-10-16T02:19:58;9.35;;;7.13;;
42118;SDS011;27783;42.782;23.274;2022-10-16T02:22:30;8.57;;;5.65;;
42118;SDS011;27783;42.782;23.274;2022-10-16T02:25:21;7.88;;;6.35;;
42118;SDS011;27783;42.782;23.274;2022-10-16T02:27:53;10.02;;;7.20;;
42118;SDS011;27783;42.782;23.274;2022-10-16T02:33:12;8.32;;;6.85;;
42118;SDS011;27783;42.782;23.274;2022-10-16T02:35:40;9.32;;;7.60;;
42118;SDS011;27783;42.782;23.274;2022-10-16T02:38:09;8.38;;;6.97;;
42118;SDS011;27783;42.782;23.274;2022-10-16T02:40:37;12.52;;;5.63;;
42118;SDS011;27783;42.782;23.274;2022-10-16T02:43:04;11.80;;;6.53;;
42118;SDS011;27783;42.782;23.274;2022-10-16T02:45:30;9.93;;;6.45;;
42118;SDS011;27783;42.782;23.274;2022-10-16T02:47:56;8.45;;;7.18;;
42118;SDS011;27783;42.782;23.274;2022-10-16T02:50:23;8.45;;;5.72;;
42118;SDS011;27783;42.782;23.274;2022-10-16T02:52:50;12.68;;;5.78;;
42118;SDS011;27783;42.782;23.274;2022-10-16T02:55:16;8.10;;;6.60;;
42118;SDS011;27783;42.782;23.274;2022-10-16T02:57:42;12.55;;;7.75;;
42118;SDS011;27783;42.782;23.274;2022-10-16T03:00:09;12.85;;;7.80;;
42118;SDS011;27783;42.782;23.274;2022-10-16T03:02:40;8.20;;;7.30;;
42118;SDS011;27783;42.782;23.274;2022-10-16T03:05:07;9.10;;;8.07;;
42118;SDS011;27783;42.782;23.274;2022-10-16T03:07:33;8.98;;;7.22;;
42118;SDS011;27783;42.782;23.274;2022-10-16T03:09:59;12.82;;;7.03;;
42118;SDS011;27783;42.782;23.274;2022-10-16T03:12:27;11.00;;;6.95;;
42118;SDS011;27783;42.782;23.274;2022-10-16T03:14:53;8.15;;;5.97;;
42118;SDS011;27783;42.782;23.274;2022-10-16T03:17:19;14.50;;;7.40;;
42118;SDS011;27783;42.782;23.274;2022-10-16T03:19:45;15.02;;;8.57;;
42118;SDS011;27783;42.782;23.274;2022-10-16T03:22:11;15.52;;;7.85;;
42118;SDS011;27783;42.782;23.274;2022-10-16T03:24:37;11.68;;;7.53;;
42118;SDS011;27783;42.782;23.274;2022-10-16T03:27:02;10.20;;;6.72;;
42118;SDS011;27783;42.782;23.274;2022-10-16T03:29:27;11.27;;;9.73;;
42118;SDS011;27783;42.782;23.274;2022-10-16T03:31:54;11.43;;;8.35;;
42118;SDS011;27783;42.782;23.274;2022-10-16T03:34:21;9.73;;;8.32;;
42118;SDS011;27783;42.782;23.274;2022-10-16T03:36:47;10.52;;;7.53;;
42118;SDS011;27783;42.782;23.274;2022-10-16T03:39:13;11.50;;;9.00;;
42118;SDS011;27783;42.782;23.274;2022-10-16T03:41:39;16.17;;;7.30;;
42118;SDS011;27783;42.782;23.274;2022-10-16T03:44:04;12.40;;;8.63;;
42118;SDS011;27783;42.782;23.274;2022-10-16T03:46:30;8.38;;;7.50;;
42118;SDS011;27783;42.782;23.274;2022-10-16T03:48:56;13.13;;;8.57;;
42118;SDS011;27783;42.782;23.274;2022-10-16T03:51:22;9.88;;;8.02;;
42118;SDS011;27783;42.782;23.274;2022-10-16T03:53:48;8.20;;;6.85;;
42118;SDS011;27783;42.782;23.274;2022-10-16T03:56:13;12.77;;;8.55;;
42118;SDS011;27783;42.782;23.274;2022-10-16T03:58:39;9.45;;;7.55;;
42118;SDS011;27783;42.782;23.274;2022-10-16T04:01:05;12.38;;;7.40;;
42118;SDS011;27783;42.782;23.274;2022-10-16T04:03:30;15.40;;;7.95;;
42118;SDS011;27783;42.782;23.274;2022-10-16T04:05:56;12.93;;;8.35;;
42118;SDS011;27783;42.782;23.274;2022-10-16T04:08:21;13.32;;;9.32;;
42118;SDS011;27783;42.782;23.274;2022-10-16T04:10:47;9.90;;;7.82;;
42118;SDS011;27783;42.782;23.274;2022-10-16T04:13:14;10.30;;;8.07;;
42118;SDS011;27783;42.782;23.274;2022-10-16T04:15:40;13.93;;;8.48;;
42118;SDS011;27783;42.782;23.274;2022-10-16T04:18:06;13.50;;;9.32;;
42118;SDS011;27783;42.782;23.274;2022-10-16T04:20:33;13.05;;;9.85;;
42118;SDS011;27783;42.782;23.274;2022-10-16T04:22:59;10.85;;;8.02;;
42118;SDS011;27783;42.782;23.274;2022-10-16T04:25:24;12.73;;;9.65;;
42118;SDS011;27783;42.782;23.274;2022-10-16T04:27:52;14.48;;;8.02;;
42118;SDS011;27783;42.782;23.274;2022-10-16T04:30:20;16.30;;;9.90;;
42118;SDS011;27783;42.782;23.274;2022-10-16T04:32:50;12.82;;;9.95;;
42118;SDS011;27783;42.782;23.274;2022-10-16T04:35:20;10.88;;;9.77;;
42118;SDS011;27783;42.782;23.274;2022-10-16T04:37:48;11.20;;;8.40;;
42118;SDS011;27783;42.782;23.274;2022-10-16T04:40:15;25.00;;;10.25;;
42118;SDS011;27783;42.782;23.274;2022-10-16T04:42:41;15.13;;;9.82;;
42118;SDS011;27783;42.782;23.274;2022-10-16T04:45:06;11.13;;;8.30;;
42118;SDS011;27783;42.782;23.274;2022-10-16T04:47:33;12.77;;;8.30;;
42118;SDS011;27783;42.782;23.274;2022-10-16T04:49:58;11.30;;;10.10;;
42118;SDS011;27783;42.782;23.274;2022-10-16T04:52:26;9.68;;;7.95;;
42118;SDS011;27783;42.782;23.274;2022-10-16T04:54:52;15.43;;;10.23;;
42118;SDS011;27783;42.782;23.274;2022-10-16T04:57:18;12.55;;;8.43;;
42118;SDS011;27783;42.782;23.274;2022-10-16T04:59:45;14.10;;;8.45;;
42118;SDS011;27783;42.782;23.274;2022-10-16T05:02:10;12.73;;;9.45;;
42118;SDS011;27783;42.782;23.274;2022-10-16T05:04:36;10.57;;;8.95;;
42118;SDS011;27783;42.782;23.274;2022-10-16T05:07:02;14.82;;;9.65;;
42118;SDS011;27783;42.782;23.274;2022-10-16T05:09:27;11.48;;;9.02;;
42118;SDS011;27783;42.782;23.274;2022-10-16T05:11:53;10.85;;;9.65;;
42118;SDS011;27783;42.782;23.274;2022-10-16T05:14:20;20.38;;;10.32;;
42118;SDS011;27783;42.782;23.274;2022-10-16T05:16:46;13.27;;;7.97;;
42118;SDS011;27783;42.782;23.274;2022-10-16T05:19:13;12.73;;;6.75;;
42118;SDS011;27783;42.782;23.274;2022-10-16T05:21:38;10.70;;;7.30;;
42118;SDS011;27783;42.782;23.274;2022-10-16T05:24:03;15.13;;;8.15;;
42118;SDS011;27783;42.782;23.274;2022-10-16T05:26:29;8.95;;;7.05;;
42118;SDS011;27783;42.782;23.274;2022-10-16T05:28:56;13.13;;;9.27;;
42118;SDS011;27783;42.782;23.274;2022-10-16T05:31:21;10.35;;;8.43;;
42118;SDS011;27783;42.782;23.274;2022-10-16T05:33:47;12.70;;;8.88;;
42118;SDS011;27783;42.782;23.274;2022-10-16T05:36:14;14.57;;;8.77;;
42118;SDS011;27783;42.782;23.274;2022-10-16T05:38:40;11.48;;;10.35;;
42118;SDS011;27783;42.782;23.274;2022-10-16T05:41:05;13.82;;;8.32;;
42118;SDS011;27783;42.782;23.274;2022-10-16T05:43:31;17.30;;;11.70;;
42118;SDS011;27783;42.782;23.274;2022-10-16T05:45:57;18.25;;;10.40;;
42118;SDS011;27783;42.782;23.274;2022-10-16T05:48:25;17.02;;;11.63;;
42118;SDS011;27783;42.782;23.274;2022-10-16T05:50:59;17.63;;;12.55;;
42118;SDS011;27783;42.782;23.274;2022-10-16T05:55:57;18.30;;;13.52;;
42118;SDS011;27783;42.782;23.274;2022-10-16T05:58:25;17.55;;;14.05;;
42118;SDS011;27783;42.782;23.274;2022-10-16T06:00:59;19.15;;;14.63;;
42118;SDS011;27783;42.782;23.274;2022-10-16T06:03:26;21.30;;;15.05;;
42118;SDS011;27783;42.782;23.274;2022-10-16T06:05:52;21.95;;;15.52;;
42118;SDS011;27783;42.782;23.274;2022-10-16T06:08:19;18.05;;;14.10;;
42118;SDS011;27783;42.782;23.274;2022-10-16T06:10:45;17.58;;;13.35;;
42118;SDS011;27783;42.782;23.274;2022-10-16T06:13:11;16.15;;;13.93;;
42118;SDS011;27783;42.782;23.274;2022-10-16T06:15:38;16.83;;;14.55;;
42118;SDS011;27783;42.782;23.274;2022-10-16T06:18:06;16.27;;;14.65;;
42118;SDS011;27783;42.782;23.274;2022-10-16T06:20:32;16.52;;;14.73;;
42118;SDS011;27783;42.782;23.274;2022-10-16T06:22:58;16.60;;;14.13;;
42118;SDS011;27783;42.782;23.274;2022-10-16T06:25:24;15.20;;;13.80;;
42118;SDS011;27783;42.782;23.274;2022-10-16T06:27:50;15.45;;;13.55;;
42118;SDS011;27783;42.782;23.274;2022-10-16T06:30:15;16.08;;;13.88;;
42118;SDS011;27783;42.782;23.274;2022-10-16T06:32:41;19.60;;;13.63;;
42118;SDS011;27783;42.782;23.274;2022-10-16T06:35:07;17.63;;;13.68;;
42118;SDS011;27783;42.782;23.274;2022-10-16T06:37:32;17.30;;;14.52;;
42118;SDS011;27783;42.782;23.274;2022-10-16T06:39:59;15.95;;;11.07;;
42118;SDS011;27783;42.782;23.274;2022-10-16T06:42:25;12.32;;;11.20;;
42118;SDS011;27783;42.782;23.274;2022-10-16T06:44:51;14.57;;;12.25;;
42118;SDS011;27783;42.782;23.274;2022-10-16T06:47:17;12.63;;;11.32;;
42118;SDS011;27783;42.782;23.274;2022-10-16T06:49:43;13.63;;;11.80;;
42118;SDS011;27783;42.782;23.274;2022-10-16T06:52:09;12.60;;;11.48;;
42118;SDS011;27783;42.782;23.274;2022-10-16T06:54:34;11.73;;;10.50;;
42118;SDS011;27783;42.782;23.274;2022-10-16T06:56:59;19.52;;;12.93;;
42118;SDS011;27783;42.782;23.274;2022-10-16T06:59:26;13.73;;;12.45;;
42118;SDS011;27783;42.782;23.274;2022-10-16T07:01:53;12.52;;;11.07;;
42118;SDS011;27783;42.782;23.274;2022-10-16T07:04:20;13.95;;;12.57;;
42118;SDS011;27783;42.782;23.274;2022-10-16T07:06:46;12.52;;;10.65;;
42118;SDS011;27783;42.782;23.274;2022-10-16T07:09:11;12.57;;;11.38;;
42118;SDS011;27783;42.782;23.274;2022-10-16T07:11:38;9.50;;;8.60;;
42118;SDS011;27783;42.782;23.274;2022-10-16T07:14:04;8.75;;;8.00;;
42118;SDS011;27783;42.782;23.274;2022-10-16T07:16:35;9.43;;;8.25;;
42118;SDS011;27783;42.782;23.274;2022-10-16T07:19:01;10.10;;;9.20;;
42118;SDS011;27783;42.782;23.274;2022-10-16T07:21:28;9.40;;;8.40;;
42118;SDS011;27783;42.782;23.274;2022-10-16T07:23:56;10.85;;;8.88;;
42118;SDS011;27783;42.782;23.274;2022-10-16T07:26:24;8.57;;;7.75;;
42118;SDS011;27783;42.782;23.274;2022-10-16T07:28:50;8.38;;;7.57;;
42118;SDS011;27783;42.782;23.274;2022-10-16T07:31:17;8.27;;;7.47;;
42118;SDS011;27783;42.782;23.274;2022-10-16T07:33:44;8.15;;;7.35;;
42118;SDS011;27783;42.782;23.274;2022-10-16T07:36:12;8.63;;;7.82;;
42118;SDS011;27783;42.782;23.274;2022-10-16T07:38:39;8.30;;;7.50;;
42118;SDS011;27783;42.782;23.274;2022-10-16T07:41:09;7.97;;;7.28;;
42118;SDS011;27783;42.782;23.274;2022-10-16T07:43:36;8.35;;;7.65;;
42118;SDS011;27783;42.782;23.274;2022-10-16T07:46:01;7.53;;;6.70;;
42118;SDS011;27783;42.782;23.274;2022-10-16T07:48:28;8.43;;;7.72;;
42118;SDS011;27783;42.782;23.274;2022-10-16T07:53:24;10.43;;;6.88;;
42118;SDS011;27783;42.782;23.274;2022-10-16T07:55:50;8.43;;;7.57;;
42118;SDS011;27783;42.782;23.274;2022-10-16T07:58:15;8.85;;;8.05;;
42118;SDS011;27783;42.782;23.274;2022-10-16T08:00:42;9.25;;;8.23;;
42118;SDS011;27783;42.782;23.274;2022-10-16T08:03:08;9.30;;;8.40;;
42118;SDS011;27783;42.782;23.274;2022-10-16T08:05:33;9.10;;;8.30;;
42118;SDS011;27783;42.782;23.274;2022-10-16T08:07:59;9.27;;;8.38;;
42118;SDS011;27783;42.782;23.274;2022-10-16T08:10:27;9.97;;;9.00;;
42118;SDS011;27783;42.782;23.274;2022-10-16T08:12:53;10.40;;;9.35;;
42118;SDS011;27783;42.782;23.274;2022-10-16T08:15:19;10.38;;;9.48;;
42118;SDS011;27783;42.782;23.274;2022-10-16T08:17:53;9.82;;;9.05;;
42118;SDS011;27783;42.782;23.274;2022-10-16T08:20:21;8.68;;;7.65;;
42118;SDS011;27783;42.782;23.274;2022-10-16T08:22:46;11.63;;;8.80;;
42118;SDS011;27783;42.782;23.274;2022-10-16T08:25:13;8.82;;;8.05;;
42118;SDS011;27783;42.782;23.274;2022-10-16T08:27:40;8.73;;;7.88;;
42118;SDS011;27783;42.782;23.274;2022-10-16T08:30:05;13.80;;;10.70;;
42118;SDS011;27783;42.782;23.274;2022-10-16T08:32:31;10.20;;;9.30;;
42118;SDS011;27783;42.782;23.274;2022-10-16T08:34:57;8.63;;;7.70;;
42118;SDS011;27783;42.782;23.274;2022-10-16T08:37:22;7.90;;;7.30;;
42118;SDS011;27783;42.782;23.274;2022-10-16T08:39:47;8.60;;;7.57;;
42118;SDS011;27783;42.782;23.274;2022-10-16T08:42:16;8.10;;;7.00;;
42118;SDS011;27783;42.782;23.274;2022-10-16T08:50:26;8.02;;;5.25;;
42118;SDS011;27783;42.782;23.274;2022-10-16T08:52:53;5.60;;;4.85;;
42118;SDS011;27783;42.782;23.274;2022-10-16T08:55:30;5.50;;;4.53;;
42118;SDS011;27783;42.782;23.274;2022-10-16T08:57:59;5.30;;;4.57;;
42118;SDS011;27783;42.782;23.274;2022-10-16T09:00:25;5.38;;;4.93;;
42118;SDS011;27783;42.782;23.274;2022-10-16T09:03:16;5.22;;;4.82;;
42118;SDS011;27783;42.782;23.274;2022-10-16T09:08:30;4.82;;;4.13;;
42118;SDS011;27783;42.782;23.274;2022-10-16T09:11:14;5.22;;;4.13;;
42118;SDS011;27783;42.782;23.274;2022-10-16T09:13:59;4.90;;;4.40;;
42118;SDS011;27783;42.782;23.274;2022-10-16T09:16:36;4.25;;;3.88;;
42118;SDS011;27783;42.782;23.274;2022-10-16T09:21:37;4.97;;;4.57;;
42118;SDS011;27783;42.782;23.274;2022-10-16T09:24:16;6.18;;;4.00;;
42118;SDS011;27783;42.782;23.274;2022-10-16T09:26:49;4.13;;;3.78;;
42118;SDS011;27783;42.782;23.274;2022-10-16T09:29:16;4.38;;;3.55;;
42118;SDS011;27783;42.782;23.274;2022-10-16T09:31:45;4.30;;;3.90;;
42118;SDS011;27783;42.782;23.274;2022-10-16T09:34:33;4.75;;;4.05;;
42118;SDS011;27783;42.782;23.274;2022-10-16T09:37:00;6.25;;;4.03;;
42118;SDS011;27783;42.782;23.274;2022-10-16T09:39:29;11.88;;;9.50;;
42118;SDS011;27783;42.782;23.274;2022-10-16T09:41:54;4.53;;;3.22;;
42118;SDS011;27783;42.782;23.274;2022-10-16T09:44:25;5.50;;;4.35;;
42118;SDS011;27783;42.782;23.274;2022-10-16T09:49:28;13.38;;;5.00;;
42118;SDS011;27783;42.782;23.274;2022-10-16T09:52:04;3.50;;;3.20;;
42118;SDS011;27783;42.782;23.274;2022-10-16T09:54:31;4.90;;;3.97;;
42118;SDS011;27783;42.782;23.274;2022-10-16T09:57:06;6.70;;;4.10;;
42118;SDS011;27783;42.782;23.274;2022-10-16T09:59:32;3.95;;;3.55;;
42118;SDS011;27783;42.782;23.274;2022-10-16T10:02:01;3.78;;;3.00;;
42118;SDS011;27783;42.782;23.274;2022-10-16T10:04:37;4.78;;;3.05;;
42118;SDS011;27783;42.782;23.274;2022-10-16T10:07:05;3.65;;;3.28;;
42118;SDS011;27783;42.782;23.274;2022-10-16T10:09:37;3.42;;;3.08;;
42118;SDS011;27783;42.782;23.274;2022-10-16T10:12:05;4.93;;;3.28;;
42118;SDS011;27783;42.782;23.274;2022-10-16T10:14:35;3.63;;;3.33;;
42118;SDS011;27783;42.782;23.274;2022-10-16T10:19:39;6.32;;;3.17;;
42118;SDS011;27783;42.782;23.274;2022-10-16T10:24:53;3.83;;;2.83;;
42118;SDS011;27783;42.782;23.274;2022-10-16T10:33:31;3.53;;;3.22;;
42118;SDS011;27783;42.782;23.274;2022-10-16T10:42:09;5.03;;;3.03;;
42118;SDS011;27783;42.782;23.274;2022-10-16T10:50:54;3.55;;;2.50;;
42118;SDS011;27783;42.782;23.274;2022-10-16T11:02:00;3.63;;;2.83;;
42118;SDS011;27783;42.782;23.274;2022-10-16T11:04:43;3.50;;;3.20;;
42118;SDS011;27783;42.782;23.274;2022-10-16T11:07:28;3.10;;;2.75;;
42118;SDS011;27783;42.782;23.274;2022-10-16T11:09:59;4.88;;;2.75;;
42118;SDS011;27783;42.782;23.274;2022-10-16T11:12:39;4.47;;;3.17;;
42118;SDS011;27783;42.782;23.274;2022-10-16T11:20:49;3.30;;;2.10;;
42118;SDS011;27783;42.782;23.274;2022-10-16T11:25:50;3.78;;;2.05;;
42118;SDS011;27783;42.782;23.274;2022-10-16T11:28:20;3.17;;;2.63;;
42118;SDS011;27783;42.782;23.274;2022-10-16T11:30:56;3.67;;;2.22;;
42118;SDS011;27783;42.782;23.274;2022-10-16T11:33:30;3.00;;;2.15;;
42118;SDS011;27783;42.782;23.274;2022-10-16T11:41:32;3.30;;;2.25;;
42118;SDS011;27783;42.782;23.274;2022-10-16T11:44:06;3.42;;;2.35;;
42118;SDS011;27783;42.782;23.274;2022-10-16T11:46:35;2.72;;;2.05;;
42118;SDS011;27783;42.782;23.274;2022-10-16T11:49:07;3.85;;;2.55;;
42118;SDS011;27783;42.782;23.274;2022-10-16T11:54:29;3.35;;;1.92;;
42118;SDS011;27783;42.782;23.274;2022-10-16T11:57:14;2.97;;;2.03;;
42118;SDS011;27783;42.782;23.274;2022-10-16T12:08:29;4.72;;;2.20;;
42118;SDS011;27783;42.782;23.274;2022-10-16T12:11:05;2.60;;;1.80;;
42118;SDS011;27783;42.782;23.274;2022-10-16T12:13:45;1.98;;;1.70;;
42118;SDS011;27783;42.782;23.274;2022-10-16T12:18:39;3.80;;;2.42;;
42118;SDS011;27783;42.782;23.274;2022-10-16T12:21:06;2.97;;;2.45;;
42118;SDS011;27783;42.782;23.274;2022-10-16T12:23:33;3.50;;;1.92;;
42118;SDS011;27783;42.782;23.274;2022-10-16T12:26:02;3.75;;;2.08;;
42118;SDS011;27783;42.782;23.274;2022-10-16T12:28:31;3.00;;;2.55;;
42118;SDS011;27783;42.782;23.274;2022-10-16T12:31:00;2.42;;;2.22;;
42118;SDS011;27783;42.782;23.274;2022-10-16T12:33:40;2.53;;;1.65;;
42118;SDS011;27783;42.782;23.274;2022-10-16T12:36:31;2.65;;;2.15;;
42118;SDS011;27783;42.782;23.274;2022-10-16T12:39:06;5.85;;;4.32;;
42118;SDS011;27783;42.782;23.274;2022-10-16T12:41:59;14.43;;;12.90;;
42118;SDS011;27783;42.782;23.274;2022-10-16T12:44:27;3.75;;;3.13;;
42118;SDS011;27783;42.782;23.274;2022-10-16T12:46:57;2.83;;;0.98;;
42118;SDS011;27783;42.782;23.274;2022-10-16T12:51:55;1.58;;;1.05;;
42118;SDS011;27783;42.782;23.274;2022-10-16T13:00:04;0.97;;;0.80;;
42118;SDS011;27783;42.782;23.274;2022-10-16T13:27:59;4.18;;;2.05;;
42118;SDS011;27783;42.782;23.274;2022-10-16T13:30:27;2.92;;;2.45;;
42118;SDS011;27783;42.782;23.274;2022-10-16T13:35:32;5.20;;;2.17;;
42118;SDS011;27783;42.782;23.274;2022-10-16T13:38:18;1.50;;;1.40;;
42118;SDS011;27783;42.782;23.274;2022-10-16T13:40:55;6.40;;;1.88;;
42118;SDS011;27783;42.782;23.274;2022-10-16T13:43:42;4.95;;;1.88;;
42118;SDS011;27783;42.782;23.274;2022-10-16T13:46:21;2.22;;;1.33;;
42118;SDS011;27783;42.782;23.274;2022-10-16T13:49:00;2.13;;;1.52;;
42118;SDS011;27783;42.782;23.274;2022-10-16T13:51:28;2.55;;;1.50;;
42118;SDS011;27783;42.782;23.274;2022-10-16T13:53:55;1.70;;;1.33;;
42118;SDS011;27783;42.782;23.274;2022-10-16T13:56:22;3.97;;;1.73;;
42118;SDS011;27783;42.782;23.274;2022-10-16T13:59:02;2.33;;;2.13;;
42118;SDS011;27783;42.782;23.274;2022-10-16T14:01:30;15.32;;;13.75;;
42118;SDS011;27783;42.782;23.274;2022-10-16T14:04:16;28.92;;;17.13;;
42118;SDS011;27783;42.782;23.274;2022-10-16T14:06:43;42.28;;;21.98;;
42118;SDS011;27783;42.782;23.274;2022-10-16T14:11:52;55.05;;;32.15;;
42118;SDS011;27783;42.782;23.274;2022-10-16T14:15:02;24.58;;;17.23;;
42118;SDS011;27783;42.782;23.274;2022-10-16T14:17:28;19.83;;;12.52;;
42118;SDS011;27783;42.782;23.274;2022-10-16T14:19:57;16.95;;;12.63;;
42118;SDS011;27783;42.782;23.274;2022-10-16T14:24:59;8.52;;;7.25;;
42118;SDS011;27783;42.782;23.274;2022-10-16T14:27:29;6.50;;;5.82;;
42118;SDS011;27783;42.782;23.274;2022-10-16T14:30:31;4.30;;;3.90;;
42118;SDS011;27783;42.782;23.274;2022-10-16T14:32:57;13.27;;;12.07;;
42118;SDS011;27783;42.782;23.274;2022-10-16T14:35:37;15.85;;;14.50;;
42118;SDS011;27783;42.782;23.274;2022-10-16T14:38:04;18.27;;;16.58;;
42118;SDS011;27783;42.782;23.274;2022-10-16T14:40:33;7.55;;;6.75;;
42118;SDS011;27783;42.782;23.274;2022-10-16T14:43:02;10.43;;;5.65;;
42118;SDS011;27783;42.782;23.274;2022-10-16T14:45:29;8.45;;;5.85;;
42118;SDS011;27783;42.782;23.274;2022-10-16T14:48:01;3.75;;;3.42;;
42118;SDS011;27783;42.782;23.274;2022-10-16T14:50:31;5.25;;;4.65;;
42118;SDS011;27783;42.782;23.274;2022-10-16T14:52:56;4.55;;;3.95;;
42118;SDS011;27783;42.782;23.274;2022-10-16T14:55:36;7.82;;;5.00;;
42118;SDS011;27783;42.782;23.274;2022-10-16T14:58:02;15.80;;;11.57;;
42118;SDS011;27783;42.782;23.274;2022-10-16T15:00:27;7.60;;;5.18;;
42118;SDS011;27783;42.782;23.274;2022-10-16T15:02:53;10.38;;;8.75;;
42118;SDS011;27783;42.782;23.274;2022-10-16T15:06:16;8.15;;;5.57;;
42118;SDS011;27783;42.782;23.274;2022-10-16T15:09:22;16.55;;;11.50;;
42118;SDS011;27783;42.782;23.274;2022-10-16T15:11:49;10.00;;;8.98;;
42118;SDS011;27783;42.782;23.274;2022-10-16T15:14:15;8.35;;;7.35;;
42118;SDS011;27783;42.782;23.274;2022-10-16T15:16:41;8.80;;;6.70;;
42118;SDS011;27783;42.782;23.274;2022-10-16T15:19:07;9.10;;;6.13;;
42118;SDS011;27783;42.782;23.274;2022-10-16T15:21:33;16.08;;;10.68;;
42118;SDS011;27783;42.782;23.274;2022-10-16T15:23:59;12.95;;;10.65;;
42118;SDS011;27783;42.782;23.274;2022-10-16T15:26:27;16.70;;;12.05;;
42118;SDS011;27783;42.782;23.274;2022-10-16T15:28:55;10.93;;;6.38;;
42118;SDS011;27783;42.782;23.274;2022-10-16T15:31:24;9.93;;;6.38;;
42118;SDS011;27783;42.782;23.274;2022-10-16T15:33:51;10.43;;;5.70;;
42118;SDS011;27783;42.782;23.274;2022-10-16T15:39:03;7.13;;;6.45;;
42118;SDS011;27783;42.782;23.274;2022-10-16T15:41:29;11.77;;;10.45;;
42118;SDS011;27783;42.782;23.274;2022-10-16T15:43:56;15.20;;;13.00;;
42118;SDS011;27783;42.782;23.274;2022-10-16T15:46:23;16.38;;;14.75;;
42118;SDS011;27783;42.782;23.274;2022-10-16T15:48:49;35.40;;;27.85;;
42118;SDS011;27783;42.782;23.274;2022-10-16T15:51:21;39.58;;;29.50;;
42118;SDS011;27783;42.782;23.274;2022-10-16T15:53:47;36.25;;;27.95;;
42118;SDS011;27783;42.782;23.274;2022-10-16T15:56:14;29.02;;;16.92;;
42118;SDS011;27783;42.782;23.274;2022-10-16T15:58:39;17.42;;;14.70;;
42118;SDS011;27783;42.782;23.274;2022-10-16T16:01:11;21.92;;;18.73;;
42118;SDS011;27783;42.782;23.274;2022-10-16T16:03:42;8.05;;;7.25;;
42118;SDS011;27783;42.782;23.274;2022-10-16T16:06:11;10.85;;;9.73;;
42118;SDS011;27783;42.782;23.274;2022-10-16T16:08:38;10.57;;;9.68;;
42118;SDS011;27783;42.782;23.274;2022-10-16T16:11:06;12.38;;;8.32;;
42118;SDS011;27783;42.782;23.274;2022-10-16T16:13:33;7.53;;;6.75;;
42118;SDS011;27783;42.782;23.274;2022-10-16T16:16:00;14.27;;;6.38;;
42118;SDS011;27783;42.782;23.274;2022-10-16T16:18:26;10.70;;;5.15;;
42118;SDS011;27783;42.782;23.274;2022-10-16T16:20:55;9.73;;;5.05;;
42118;SDS011;27783;42.782;23.274;2022-10-16T16:23:21;6.40;;;4.13;;
42118;SDS011;27783;42.782;23.274;2022-10-16T16:26:06;6.30;;;4.22;;
42118;SDS011;27783;42.782;23.274;2022-10-16T16:28:52;7.72;;;4.97;;
42118;SDS011;27783;42.782;23.274;2022-10-16T16:31:27;6.72;;;6.03;;
42118;SDS011;27783;42.782;23.274;2022-10-16T16:34:12;7.63;;;6.88;;
42118;SDS011;27783;42.782;23.274;2022-10-16T16:36:40;4.45;;;4.05;;
42118;SDS011;27783;42.782;23.274;2022-10-16T16:39:06;5.03;;;4.63;;
42118;SDS011;27783;42.782;23.274;2022-10-16T16:41:34;5.75;;;4.43;;
42118;SDS011;27783;42.782;23.274;2022-10-16T16:44:06;4.60;;;3.10;;
42118;SDS011;27783;42.782;23.274;2022-10-16T16:46:34;3.92;;;3.22;;
42118;SDS011;27783;42.782;23.274;2022-10-16T16:49:01;3.40;;;3.05;;
42118;SDS011;27783;42.782;23.274;2022-10-16T16:51:27;4.32;;;3.95;;
42118;SDS011;27783;42.782;23.274;2022-10-16T16:53:54;11.30;;;7.25;;
42118;SDS011;27783;42.782;23.274;2022-10-16T16:56:22;6.83;;;4.73;;
42118;SDS011;27783;42.782;23.274;2022-10-16T16:58:50;4.80;;;3.80;;